Impacts METAR Board
IDs:

KCLT - Charlotte/Douglas In, NC, US

Updated at: 0300 UTC 23 May 2018
Potential Impact None Slight Moderate High
Time 22/15Z 22/16Z 22/17Z 22/18Z 22/19Z 22/20Z 22/21Z 22/22Z 22/23Z 23/00Z 23/01Z 23/02Z 23/03Z
Temp77 81 83 84 85 85 85 84 80 78 76 74 73
Dewpt70 68 66 64 63 64 64 67 66 66 68 68 68
Altim30.16 30.16 30.14 30.12 30.09 30.07 30.05 30.05 30.06 30.06 30.07 30.09 30.10
VIS10 10 10 10 10 10 10 10 10 10 10 10 10
CIG14 47 160 250 250 250 -- -- 200 190 210 140 --
CoverBKNBKNBKNBKNBKNBKNSCTSCTBKNBKNBKNBKNSCT
FltCatMVFRVFRVFRVFRVFRVFRVFRVFRVFRVFRVFRVFRVFR
WX--------------------------
WDir2701902102500200200220220220220220210
WSpd5 7 6 6 6 9 10 8 9 5 6 4 6
WGst-- -- -- -- -- -- -- -- -- -- -- -- --
Raw hourly METARs
KCLT 221452Z 27005KT 10SM BKN014 BKN250 25/21 A3016 RMK AO2 SLP205 T02500211 50001
KCLT 221552Z 19007KT 160V240 10SM SCT018 BKN047 BKN250 27/20 A3016 RMK AO2 SLP205 T02720200
KCLT 221652Z 21006KT 10SM SCT028 BKN160 BKN250 28/19 A3014 RMK AO2 SLP197 T02830189
KCLT 221752Z 25006KT 10SM SCT036 SCT160 BKN250 29/18 A3012 RMK AO2 SLP191 T02890178 10294 20217 58013
KCLT 221852Z VRB06KT 10SM SCT042 BKN250 29/17 A3009 RMK AO2 SLP180 T02940172
KCLT 221952Z 20009KT 10SM SCT042 SCT160 BKN250 29/18 A3007 RMK AO2 SLP173 T02940178
KCLT 222052Z 20010KT 10SM SCT046 SCT160 SCT250 29/18 A3005 RMK AO2 SLP168 TCU DSNT S T02940178 56023
KCLT 222152Z 22008KT 10SM FEW046 FEW095 SCT250 29/19 A3005 RMK AO2 SLP166 T02890194
KCLT 222252Z 22009KT 10SM FEW044 SCT085 BKN200 27/19 A3006 RMK AO2 SLP169 TCU DSNT E AND SW T02670189
KCLT 222352Z 22005KT 10SM FEW042 FEW090 BKN190 BKN250 26/19 A3006 RMK AO2 SLP170 CB DSNT NW TCU DSNT NE AND SW T02560189 10300 20256 53002
KCLT 230052Z 22006KT 10SM FEW042 FEW080 SCT120 BKN210 24/20 A3007 RMK AO2 SLP176 T02440200
KCLT 230152Z 22004KT 10SM FEW080 BKN140 23/20 A3009 RMK AO2 SLP181 T02330200
KCLT 230252Z 21006KT 10SM SCT140 23/20 A3010 RMK AO2 SLP183 T02280200 51013



Page loaded:  03:02 UTC  |   08:02 PM Pacific  |   09:02 PM Mountain  |   10:02 PM Central  |   11:02 PM Eastern

 

ADVISORIES

FORECASTS

FORECASTS

OBSERVATIONS

USER TOOLS

ABOUT US